sensor_id;sensor_type;location;lat;lon;timestamp;P1;durP1;ratioP1;P2;durP2;ratioP2
31182;SDS011;17813;0.000;0.000;2024-01-30T00:02:24;13.57;;;7.97;;
31182;SDS011;17813;0.000;0.000;2024-01-30T00:05:05;8.80;;;6.90;;
31182;SDS011;17813;0.000;0.000;2024-01-30T00:07:33;9.47;;;6.47;;
31182;SDS011;17813;0.000;0.000;2024-01-30T00:10:02;8.23;;;6.27;;
31182;SDS011;17813;0.000;0.000;2024-01-30T00:12:38;7.40;;;6.40;;
31182;SDS011;17813;0.000;0.000;2024-01-30T00:15:07;9.00;;;6.30;;
31182;SDS011;17813;0.000;0.000;2024-01-30T00:17:38;7.67;;;6.03;;
31182;SDS011;17813;0.000;0.000;2024-01-30T00:20:25;8.23;;;6.13;;
31182;SDS011;17813;0.000;0.000;2024-01-30T00:22:53;9.33;;;6.73;;
31182;SDS011;17813;0.000;0.000;2024-01-30T00:25:20;8.47;;;6.43;;
31182;SDS011;17813;0.000;0.000;2024-01-30T00:27:49;8.07;;;6.07;;
31182;SDS011;17813;0.000;0.000;2024-01-30T00:30:16;7.73;;;6.07;;
31182;SDS011;17813;0.000;0.000;2024-01-30T00:32:46;7.43;;;6.13;;
31182;SDS011;17813;0.000;0.000;2024-01-30T00:35:13;7.77;;;5.83;;
31182;SDS011;17813;0.000;0.000;2024-01-30T00:37:43;7.60;;;5.70;;
31182;SDS011;17813;0.000;0.000;2024-01-30T00:40:11;8.10;;;6.17;;
31182;SDS011;17813;0.000;0.000;2024-01-30T00:42:54;8.10;;;6.07;;
31182;SDS011;17813;0.000;0.000;2024-01-30T00:45:39;9.10;;;6.03;;
31182;SDS011;17813;0.000;0.000;2024-01-30T00:48:24;8.60;;;6.50;;
31182;SDS011;17813;0.000;0.000;2024-01-30T00:50:52;9.70;;;6.50;;
31182;SDS011;17813;0.000;0.000;2024-01-30T00:53:30;11.43;;;6.90;;
31182;SDS011;17813;0.000;0.000;2024-01-30T00:56:12;9.07;;;6.73;;
31182;SDS011;17813;0.000;0.000;2024-01-30T00:58:43;12.53;;;6.90;;
31182;SDS011;17813;0.000;0.000;2024-01-30T01:01:17;10.97;;;6.17;;
31182;SDS011;17813;0.000;0.000;2024-01-30T01:04:07;9.33;;;6.53;;
31182;SDS011;17813;0.000;0.000;2024-01-30T01:06:57;10.20;;;7.10;;
31182;SDS011;17813;0.000;0.000;2024-01-30T01:09:49;8.60;;;6.60;;
31182;SDS011;17813;0.000;0.000;2024-01-30T01:12:36;8.60;;;5.87;;
31182;SDS011;17813;0.000;0.000;2024-01-30T01:15:06;8.87;;;6.13;;
31182;SDS011;17813;0.000;0.000;2024-01-30T01:17:39;10.60;;;6.63;;
31182;SDS011;17813;0.000;0.000;2024-01-30T01:20:07;9.13;;;6.53;;
31182;SDS011;17813;0.000;0.000;2024-01-30T01:22:37;9.20;;;5.83;;
31182;SDS011;17813;0.000;0.000;2024-01-30T01:25:23;8.00;;;6.57;;
31182;SDS011;17813;0.000;0.000;2024-01-30T01:27:57;9.13;;;6.70;;
31182;SDS011;17813;0.000;0.000;2024-01-30T01:30:28;9.33;;;6.70;;
31182;SDS011;17813;0.000;0.000;2024-01-30T01:32:56;11.33;;;7.97;;
31182;SDS011;17813;0.000;0.000;2024-01-30T01:35:27;11.17;;;7.47;;
31182;SDS011;17813;0.000;0.000;2024-01-30T01:37:58;11.97;;;7.37;;
31182;SDS011;17813;0.000;0.000;2024-01-30T01:40:46;8.77;;;6.90;;
31182;SDS011;17813;0.000;0.000;2024-01-30T01:43:29;8.70;;;6.60;;
31182;SDS011;17813;0.000;0.000;2024-01-30T01:46:16;8.50;;;6.60;;
31182;SDS011;17813;0.000;0.000;2024-01-30T01:49:08;8.03;;;6.27;;
31182;SDS011;17813;0.000;0.000;2024-01-30T01:51:37;7.87;;;6.43;;
31182;SDS011;17813;0.000;0.000;2024-01-30T01:54:06;8.47;;;6.83;;
31182;SDS011;17813;0.000;0.000;2024-01-30T01:56:35;8.20;;;6.20;;
31182;SDS011;17813;0.000;0.000;2024-01-30T01:59:07;8.90;;;6.23;;
31182;SDS011;17813;0.000;0.000;2024-01-30T02:01:37;8.63;;;6.70;;
31182;SDS011;17813;0.000;0.000;2024-01-30T02:04:08;8.03;;;6.13;;
31182;SDS011;17813;0.000;0.000;2024-01-30T02:06:37;7.03;;;6.00;;
31182;SDS011;17813;0.000;0.000;2024-01-30T02:09:05;8.60;;;6.60;;
31182;SDS011;17813;0.000;0.000;2024-01-30T02:11:35;7.90;;;6.67;;
31182;SDS011;17813;0.000;0.000;2024-01-30T02:14:05;8.37;;;6.13;;
31182;SDS011;17813;0.000;0.000;2024-01-30T02:16:32;7.37;;;5.73;;
31182;SDS011;17813;0.000;0.000;2024-01-30T02:19:09;8.37;;;6.37;;
31182;SDS011;17813;0.000;0.000;2024-01-30T02:21:55;8.90;;;6.77;;
31182;SDS011;17813;0.000;0.000;2024-01-30T02:24:24;9.07;;;7.10;;
31182;SDS011;17813;0.000;0.000;2024-01-30T02:26:51;9.23;;;7.27;;
31182;SDS011;17813;0.000;0.000;2024-01-30T02:29:35;9.90;;;6.63;;
31182;SDS011;17813;0.000;0.000;2024-01-30T02:32:05;8.77;;;6.53;;
31182;SDS011;17813;0.000;0.000;2024-01-30T02:34:51;8.47;;;6.63;;
31182;SDS011;17813;0.000;0.000;2024-01-30T02:37:25;9.00;;;6.67;;
31182;SDS011;17813;0.000;0.000;2024-01-30T02:40:11;8.90;;;6.27;;
31182;SDS011;17813;0.000;0.000;2024-01-30T02:42:55;9.00;;;6.17;;
31182;SDS011;17813;0.000;0.000;2024-01-30T02:45:35;8.70;;;6.40;;
31182;SDS011;17813;0.000;0.000;2024-01-30T02:48:06;9.67;;;7.17;;
31182;SDS011;17813;0.000;0.000;2024-01-30T02:50:34;10.30;;;6.73;;
31182;SDS011;17813;0.000;0.000;2024-01-30T02:53:20;9.63;;;7.10;;
31182;SDS011;17813;0.000;0.000;2024-01-30T02:56:09;7.50;;;6.40;;
31182;SDS011;17813;0.000;0.000;2024-01-30T02:59:02;8.93;;;6.90;;
31182;SDS011;17813;0.000;0.000;2024-01-30T03:01:31;8.33;;;6.80;;
31182;SDS011;17813;0.000;0.000;2024-01-30T03:04:13;9.03;;;6.50;;
31182;SDS011;17813;0.000;0.000;2024-01-30T03:06:44;7.53;;;6.23;;
31182;SDS011;17813;0.000;0.000;2024-01-30T03:09:28;8.00;;;6.43;;
31182;SDS011;17813;0.000;0.000;2024-01-30T03:12:08;7.80;;;6.23;;
31182;SDS011;17813;0.000;0.000;2024-01-30T03:14:48;6.93;;;5.90;;
31182;SDS011;17813;0.000;0.000;2024-01-30T03:17:18;9.03;;;6.33;;
31182;SDS011;17813;0.000;0.000;2024-01-30T03:19:46;8.00;;;6.23;;
31182;SDS011;17813;0.000;0.000;2024-01-30T03:22:15;8.90;;;6.20;;
31182;SDS011;17813;0.000;0.000;2024-01-30T03:24:43;9.50;;;6.70;;
31182;SDS011;17813;0.000;0.000;2024-01-30T03:27:10;8.73;;;6.13;;
31182;SDS011;17813;0.000;0.000;2024-01-30T03:29:46;8.33;;;6.40;;
31182;SDS011;17813;0.000;0.000;2024-01-30T03:32:14;9.07;;;6.23;;
31182;SDS011;17813;0.000;0.000;2024-01-30T03:34:42;9.20;;;6.47;;
31182;SDS011;17813;0.000;0.000;2024-01-30T03:37:19;7.57;;;5.90;;
31182;SDS011;17813;0.000;0.000;2024-01-30T03:39:49;7.80;;;5.93;;
31182;SDS011;17813;0.000;0.000;2024-01-30T03:42:34;8.40;;;6.60;;
31182;SDS011;17813;0.000;0.000;2024-01-30T03:45:10;9.83;;;6.17;;
31182;SDS011;17813;0.000;0.000;2024-01-30T03:47:54;9.87;;;6.40;;
31182;SDS011;17813;0.000;0.000;2024-01-30T03:50:22;8.07;;;6.33;;
31182;SDS011;17813;0.000;0.000;2024-01-30T03:52:51;7.73;;;6.20;;
31182;SDS011;17813;0.000;0.000;2024-01-30T03:55:27;8.03;;;6.53;;
31182;SDS011;17813;0.000;0.000;2024-01-30T03:57:55;9.23;;;6.33;;
31182;SDS011;17813;0.000;0.000;2024-01-30T04:00:41;9.17;;;6.43;;
31182;SDS011;17813;0.000;0.000;2024-01-30T04:03:28;8.97;;;6.50;;
31182;SDS011;17813;0.000;0.000;2024-01-30T04:06:10;8.20;;;6.20;;
31182;SDS011;17813;0.000;0.000;2024-01-30T04:09:09;9.03;;;6.20;;
31182;SDS011;17813;0.000;0.000;2024-01-30T04:11:37;8.90;;;6.57;;
31182;SDS011;17813;0.000;0.000;2024-01-30T04:14:07;8.97;;;6.17;;
31182;SDS011;17813;0.000;0.000;2024-01-30T04:16:51;7.33;;;5.77;;
31182;SDS011;17813;0.000;0.000;2024-01-30T04:19:39;7.60;;;6.13;;
31182;SDS011;17813;0.000;0.000;2024-01-30T04:22:09;8.70;;;6.20;;
31182;SDS011;17813;0.000;0.000;2024-01-30T04:24:55;7.97;;;6.17;;
31182;SDS011;17813;0.000;0.000;2024-01-30T04:27:41;7.87;;;5.97;;
31182;SDS011;17813;0.000;0.000;2024-01-30T04:30:09;10.73;;;6.57;;
31182;SDS011;17813;0.000;0.000;2024-01-30T04:32:48;7.20;;;6.20;;
31182;SDS011;17813;0.000;0.000;2024-01-30T04:35:33;7.47;;;6.03;;
31182;SDS011;17813;0.000;0.000;2024-01-30T04:38:01;7.97;;;6.40;;
31182;SDS011;17813;0.000;0.000;2024-01-30T04:40:29;8.77;;;6.17;;
31182;SDS011;17813;0.000;0.000;2024-01-30T04:42:56;8.20;;;6.43;;
31182;SDS011;17813;0.000;0.000;2024-01-30T04:45:36;8.47;;;6.23;;
31182;SDS011;17813;0.000;0.000;2024-01-30T04:48:04;9.73;;;6.90;;
31182;SDS011;17813;0.000;0.000;2024-01-30T04:50:34;10.30;;;6.90;;
31182;SDS011;17813;0.000;0.000;2024-01-30T04:53:02;9.33;;;6.40;;
31182;SDS011;17813;0.000;0.000;2024-01-30T04:55:30;8.83;;;6.33;;
31182;SDS011;17813;0.000;0.000;2024-01-30T04:57:57;8.47;;;6.20;;
31182;SDS011;17813;0.000;0.000;2024-01-30T05:00:28;8.33;;;6.50;;
31182;SDS011;17813;0.000;0.000;2024-01-30T05:03:07;7.83;;;6.17;;
31182;SDS011;17813;0.000;0.000;2024-01-30T05:05:35;8.23;;;6.53;;
31182;SDS011;17813;0.000;0.000;2024-01-30T05:08:02;8.23;;;6.50;;
31182;SDS011;17813;0.000;0.000;2024-01-30T05:10:32;8.73;;;6.67;;
31182;SDS011;17813;0.000;0.000;2024-01-30T05:13:17;8.30;;;6.17;;
31182;SDS011;17813;0.000;0.000;2024-01-30T05:15:49;7.83;;;6.40;;
31182;SDS011;17813;0.000;0.000;2024-01-30T05:18:28;8.83;;;6.50;;
31182;SDS011;17813;0.000;0.000;2024-01-30T05:21:10;8.00;;;5.97;;
31182;SDS011;17813;0.000;0.000;2024-01-30T05:23:52;7.57;;;6.00;;
31182;SDS011;17813;0.000;0.000;2024-01-30T05:26:19;8.17;;;6.00;;
31182;SDS011;17813;0.000;0.000;2024-01-30T05:28:59;7.10;;;5.80;;
31182;SDS011;17813;0.000;0.000;2024-01-30T05:31:26;8.03;;;5.63;;
31182;SDS011;17813;0.000;0.000;2024-01-30T05:33:54;7.87;;;6.53;;
31182;SDS011;17813;0.000;0.000;2024-01-30T05:36:22;8.60;;;6.60;;
31182;SDS011;17813;0.000;0.000;2024-01-30T05:39:03;7.67;;;6.33;;
31182;SDS011;17813;0.000;0.000;2024-01-30T05:41:48;8.17;;;6.90;;
31182;SDS011;17813;0.000;0.000;2024-01-30T05:44:17;10.37;;;7.40;;
31182;SDS011;17813;0.000;0.000;2024-01-30T05:46:53;10.53;;;7.60;;
31182;SDS011;17813;0.000;0.000;2024-01-30T05:49:37;9.23;;;7.20;;
31182;SDS011;17813;0.000;0.000;2024-01-30T05:52:33;9.03;;;7.53;;
31182;SDS011;17813;0.000;0.000;2024-01-30T05:55:05;10.10;;;7.60;;
31182;SDS011;17813;0.000;0.000;2024-01-30T05:57:36;10.13;;;7.20;;
31182;SDS011;17813;0.000;0.000;2024-01-30T06:00:07;8.87;;;7.20;;
31182;SDS011;17813;0.000;0.000;2024-01-30T06:02:35;12.03;;;8.20;;
31182;SDS011;17813;0.000;0.000;2024-01-30T06:05:03;13.13;;;9.50;;
31182;SDS011;17813;0.000;0.000;2024-01-30T06:07:50;10.87;;;8.97;;
31182;SDS011;17813;0.000;0.000;2024-01-30T06:10:28;10.30;;;8.30;;
31182;SDS011;17813;0.000;0.000;2024-01-30T06:12:59;10.57;;;7.63;;
31182;SDS011;17813;0.000;0.000;2024-01-30T06:15:47;11.00;;;7.93;;
31182;SDS011;17813;0.000;0.000;2024-01-30T06:18:16;11.17;;;7.93;;
31182;SDS011;17813;0.000;0.000;2024-01-30T06:20:43;9.90;;;7.37;;
31182;SDS011;17813;0.000;0.000;2024-01-30T06:23:14;10.40;;;7.50;;
31182;SDS011;17813;0.000;0.000;2024-01-30T06:25:59;9.23;;;7.40;;
31182;SDS011;17813;0.000;0.000;2024-01-30T06:28:43;11.40;;;7.53;;
31182;SDS011;17813;0.000;0.000;2024-01-30T06:31:25;9.90;;;7.23;;
31182;SDS011;17813;0.000;0.000;2024-01-30T06:33:52;9.63;;;7.10;;
31182;SDS011;17813;0.000;0.000;2024-01-30T06:36:21;10.83;;;7.70;;
31182;SDS011;17813;0.000;0.000;2024-01-30T06:38:48;9.00;;;7.50;;
31182;SDS011;17813;0.000;0.000;2024-01-30T06:41:17;9.27;;;7.27;;
31182;SDS011;17813;0.000;0.000;2024-01-30T06:43:44;9.80;;;7.67;;
31182;SDS011;17813;0.000;0.000;2024-01-30T06:46:30;18.03;;;10.27;;
31182;SDS011;17813;0.000;0.000;2024-01-30T06:49:21;13.57;;;10.17;;
31182;SDS011;17813;0.000;0.000;2024-01-30T06:52:14;10.27;;;8.17;;
31182;SDS011;17813;0.000;0.000;2024-01-30T06:54:54;11.97;;;8.73;;
31182;SDS011;17813;0.000;0.000;2024-01-30T06:57:21;11.13;;;7.70;;
31182;SDS011;17813;0.000;0.000;2024-01-30T07:00:01;11.60;;;8.03;;
31182;SDS011;17813;0.000;0.000;2024-01-30T07:02:30;10.97;;;7.80;;
31182;SDS011;17813;0.000;0.000;2024-01-30T07:05:04;10.70;;;7.33;;
31182;SDS011;17813;0.000;0.000;2024-01-30T07:07:32;9.93;;;7.97;;
31182;SDS011;17813;0.000;0.000;2024-01-30T07:10:01;9.50;;;7.50;;
31182;SDS011;17813;0.000;0.000;2024-01-30T07:12:31;9.10;;;6.63;;
31182;SDS011;17813;0.000;0.000;2024-01-30T07:14:59;9.43;;;7.23;;
31182;SDS011;17813;0.000;0.000;2024-01-30T07:17:42;10.43;;;7.50;;
31182;SDS011;17813;0.000;0.000;2024-01-30T07:20:16;11.27;;;8.17;;
31182;SDS011;17813;0.000;0.000;2024-01-30T07:22:51;9.00;;;7.13;;
31182;SDS011;17813;0.000;0.000;2024-01-30T07:25:21;11.73;;;9.13;;
31182;SDS011;17813;0.000;0.000;2024-01-30T07:27:56;11.67;;;8.10;;
31182;SDS011;17813;0.000;0.000;2024-01-30T07:30:23;11.77;;;9.07;;
31182;SDS011;17813;0.000;0.000;2024-01-30T07:32:50;14.77;;;8.77;;
31182;SDS011;17813;0.000;0.000;2024-01-30T07:35:17;10.23;;;7.90;;
31182;SDS011;17813;0.000;0.000;2024-01-30T07:37:46;11.83;;;8.20;;
31182;SDS011;17813;0.000;0.000;2024-01-30T07:40:13;9.83;;;7.10;;
31182;SDS011;17813;0.000;0.000;2024-01-30T07:42:49;9.33;;;7.13;;
31182;SDS011;17813;0.000;0.000;2024-01-30T07:45:17;9.80;;;7.43;;
31182;SDS011;17813;0.000;0.000;2024-01-30T07:47:50;11.10;;;7.37;;
31182;SDS011;17813;0.000;0.000;2024-01-30T07:50:19;12.17;;;8.37;;
31182;SDS011;17813;0.000;0.000;2024-01-30T07:52:48;13.00;;;8.57;;
31182;SDS011;17813;0.000;0.000;2024-01-30T07:55:21;10.50;;;7.60;;
31182;SDS011;17813;0.000;0.000;2024-01-30T07:57:53;11.13;;;8.23;;
31182;SDS011;17813;0.000;0.000;2024-01-30T08:00:24;10.03;;;7.50;;
31182;SDS011;17813;0.000;0.000;2024-01-30T08:02:53;9.37;;;7.90;;
31182;SDS011;17813;0.000;0.000;2024-01-30T08:05:22;10.60;;;7.47;;
31182;SDS011;17813;0.000;0.000;2024-01-30T08:07:51;8.63;;;7.57;;
31182;SDS011;17813;0.000;0.000;2024-01-30T08:10:18;10.20;;;7.50;;
31182;SDS011;17813;0.000;0.000;2024-01-30T08:12:46;9.37;;;7.33;;
31182;SDS011;17813;0.000;0.000;2024-01-30T08:15:16;11.70;;;7.97;;
31182;SDS011;17813;0.000;0.000;2024-01-30T08:17:44;10.67;;;7.43;;
31182;SDS011;17813;0.000;0.000;2024-01-30T08:20:11;10.77;;;7.40;;
31182;SDS011;17813;0.000;0.000;2024-01-30T08:22:40;11.13;;;8.37;;
31182;SDS011;17813;0.000;0.000;2024-01-30T08:25:07;13.37;;;7.93;;
31182;SDS011;17813;0.000;0.000;2024-01-30T08:27:35;10.93;;;8.30;;
31182;SDS011;17813;0.000;0.000;2024-01-30T08:30:06;11.80;;;8.47;;
31182;SDS011;17813;0.000;0.000;2024-01-30T08:32:34;14.80;;;9.43;;
31182;SDS011;17813;0.000;0.000;2024-01-30T08:35:18;11.87;;;9.10;;
31182;SDS011;17813;0.000;0.000;2024-01-30T08:37:52;13.00;;;8.67;;
31182;SDS011;17813;0.000;0.000;2024-01-30T08:40:22;10.20;;;7.53;;
31182;SDS011;17813;0.000;0.000;2024-01-30T08:42:54;12.20;;;8.53;;
31182;SDS011;17813;0.000;0.000;2024-01-30T08:45:23;12.60;;;9.17;;
31182;SDS011;17813;0.000;0.000;2024-01-30T08:48:05;15.80;;;9.70;;
31182;SDS011;17813;0.000;0.000;2024-01-30T08:50:34;11.73;;;8.60;;
31182;SDS011;17813;0.000;0.000;2024-01-30T08:53:02;11.60;;;8.90;;
31182;SDS011;17813;0.000;0.000;2024-01-30T08:55:30;10.80;;;8.30;;
31182;SDS011;17813;0.000;0.000;2024-01-30T08:57:57;13.10;;;7.87;;
31182;SDS011;17813;0.000;0.000;2024-01-30T09:00:26;10.40;;;8.20;;
31182;SDS011;17813;0.000;0.000;2024-01-30T09:02:57;10.07;;;7.60;;
31182;SDS011;17813;0.000;0.000;2024-01-30T09:05:26;10.03;;;7.80;;
31182;SDS011;17813;0.000;0.000;2024-01-30T09:08:02;10.87;;;7.70;;
31182;SDS011;17813;0.000;0.000;2024-01-30T09:10:45;9.37;;;7.80;;
31182;SDS011;17813;0.000;0.000;2024-01-30T09:13:21;10.63;;;7.37;;
31182;SDS011;17813;0.000;0.000;2024-01-30T09:15:52;9.90;;;8.03;;
31182;SDS011;17813;0.000;0.000;2024-01-30T09:18:41;9.63;;;7.67;;
31182;SDS011;17813;0.000;0.000;2024-01-30T09:21:12;10.23;;;8.07;;
31182;SDS011;17813;0.000;0.000;2024-01-30T09:23:40;11.07;;;8.03;;
31182;SDS011;17813;0.000;0.000;2024-01-30T09:26:11;11.17;;;7.87;;
31182;SDS011;17813;0.000;0.000;2024-01-30T09:28:39;9.03;;;7.87;;
31182;SDS011;17813;0.000;0.000;2024-01-30T09:31:11;10.37;;;8.20;;
31182;SDS011;17813;0.000;0.000;2024-01-30T09:33:40;13.27;;;8.50;;
31182;SDS011;17813;0.000;0.000;2024-01-30T09:36:11;13.37;;;8.03;;
31182;SDS011;17813;0.000;0.000;2024-01-30T09:38:50;11.30;;;7.83;;
31182;SDS011;17813;0.000;0.000;2024-01-30T09:41:33;10.23;;;7.27;;
31182;SDS011;17813;0.000;0.000;2024-01-30T09:44:34;9.73;;;7.53;;
31182;SDS011;17813;0.000;0.000;2024-01-30T09:47:18;11.90;;;7.80;;
31182;SDS011;17813;0.000;0.000;2024-01-30T09:49:51;11.73;;;8.10;;
31182;SDS011;17813;0.000;0.000;2024-01-30T09:52:20;9.70;;;7.93;;
31182;SDS011;17813;0.000;0.000;2024-01-30T09:54:49;9.40;;;7.53;;
31182;SDS011;17813;0.000;0.000;2024-01-30T09:57:20;9.53;;;8.10;;
31182;SDS011;17813;0.000;0.000;2024-01-30T09:59:47;9.37;;;8.00;;
31182;SDS011;17813;0.000;0.000;2024-01-30T10:02:21;10.67;;;7.47;;
31182;SDS011;17813;0.000;0.000;2024-01-30T10:04:53;9.53;;;8.00;;
31182;SDS011;17813;0.000;0.000;2024-01-30T10:07:23;9.30;;;7.77;;
31182;SDS011;17813;0.000;0.000;2024-01-30T10:09:50;12.03;;;8.00;;
31182;SDS011;17813;0.000;0.000;2024-01-30T10:12:25;9.33;;;8.30;;
31182;SDS011;17813;0.000;0.000;2024-01-30T10:15:07;10.17;;;8.10;;
31182;SDS011;17813;0.000;0.000;2024-01-30T10:17:37;12.73;;;8.13;;
31182;SDS011;17813;0.000;0.000;2024-01-30T10:20:05;10.70;;;7.57;;
31182;SDS011;17813;0.000;0.000;2024-01-30T10:22:36;10.20;;;8.03;;
31182;SDS011;17813;0.000;0.000;2024-01-30T10:25:03;13.27;;;8.27;;
31182;SDS011;17813;0.000;0.000;2024-01-30T10:27:32;13.03;;;8.43;;
31182;SDS011;17813;0.000;0.000;2024-01-30T10:30:13;9.47;;;8.10;;
31182;SDS011;17813;0.000;0.000;2024-01-30T10:32:42;11.00;;;8.10;;
31182;SDS011;17813;0.000;0.000;2024-01-30T10:35:11;10.33;;;7.90;;
31182;SDS011;17813;0.000;0.000;2024-01-30T10:37:39;9.73;;;7.70;;
31182;SDS011;17813;0.000;0.000;2024-01-30T10:40:08;10.40;;;7.80;;
31182;SDS011;17813;0.000;0.000;2024-01-30T10:43:02;11.73;;;7.57;;
31182;SDS011;17813;0.000;0.000;2024-01-30T10:45:50;10.87;;;8.50;;
31182;SDS011;17813;0.000;0.000;2024-01-30T10:48:27;9.97;;;7.73;;
31182;SDS011;17813;0.000;0.000;2024-01-30T10:50:58;9.50;;;8.20;;
31182;SDS011;17813;0.000;0.000;2024-01-30T10:53:38;8.47;;;7.33;;
31182;SDS011;17813;0.000;0.000;2024-01-30T10:56:13;11.13;;;8.07;;
31182;SDS011;17813;0.000;0.000;2024-01-30T10:58:56;9.60;;;7.60;;
31182;SDS011;17813;0.000;0.000;2024-01-30T11:01:25;10.00;;;8.00;;
31182;SDS011;17813;0.000;0.000;2024-01-30T11:03:55;9.27;;;7.67;;
31182;SDS011;17813;0.000;0.000;2024-01-30T11:06:26;9.73;;;7.50;;
31182;SDS011;17813;0.000;0.000;2024-01-30T11:11:55;8.70;;;7.57;;
31182;SDS011;17813;0.000;0.000;2024-01-30T11:14:31;9.33;;;7.33;;
31182;SDS011;17813;0.000;0.000;2024-01-30T11:17:02;9.33;;;7.57;;
31182;SDS011;17813;0.000;0.000;2024-01-30T11:19:36;8.53;;;7.20;;
31182;SDS011;17813;0.000;0.000;2024-01-30T11:22:06;9.20;;;7.77;;
31182;SDS011;17813;0.000;0.000;2024-01-30T11:24:41;9.30;;;7.93;;
31182;SDS011;17813;0.000;0.000;2024-01-30T11:27:08;8.63;;;7.30;;
31182;SDS011;17813;0.000;0.000;2024-01-30T11:29:36;9.60;;;7.13;;
31182;SDS011;17813;0.000;0.000;2024-01-30T11:32:03;9.67;;;7.30;;
31182;SDS011;17813;0.000;0.000;2024-01-30T11:34:30;9.00;;;7.73;;
31182;SDS011;17813;0.000;0.000;2024-01-30T11:37:16;8.60;;;7.30;;
31182;SDS011;17813;0.000;0.000;2024-01-30T11:39:47;8.83;;;7.43;;
31182;SDS011;17813;0.000;0.000;2024-01-30T11:42:17;10.20;;;7.23;;
31182;SDS011;17813;0.000;0.000;2024-01-30T11:44:47;9.70;;;7.57;;
31182;SDS011;17813;0.000;0.000;2024-01-30T11:47:14;9.27;;;7.97;;
31182;SDS011;17813;0.000;0.000;2024-01-30T11:49:43;8.70;;;7.23;;
31182;SDS011;17813;0.000;0.000;2024-01-30T11:52:14;8.47;;;7.27;;
31182;SDS011;17813;0.000;0.000;2024-01-30T11:54:50;8.37;;;7.37;;
31182;SDS011;17813;0.000;0.000;2024-01-30T11:57:18;10.53;;;7.70;;
31182;SDS011;17813;0.000;0.000;2024-01-30T11:59:44;7.93;;;6.97;;
31182;SDS011;17813;0.000;0.000;2024-01-30T12:02:17;8.07;;;6.90;;
31182;SDS011;17813;0.000;0.000;2024-01-30T12:05:03;7.63;;;6.57;;
31182;SDS011;17813;0.000;0.000;2024-01-30T12:07:37;8.07;;;6.70;;
31182;SDS011;17813;0.000;0.000;2024-01-30T12:10:19;10.37;;;7.30;;
31182;SDS011;17813;0.000;0.000;2024-01-30T12:12:52;8.63;;;7.00;;
31182;SDS011;17813;0.000;0.000;2024-01-30T12:15:22;8.67;;;7.00;;
31182;SDS011;17813;0.000;0.000;2024-01-30T12:17:50;7.40;;;6.20;;
31182;SDS011;17813;0.000;0.000;2024-01-30T12:20:22;11.87;;;7.23;;
31182;SDS011;17813;0.000;0.000;2024-01-30T12:22:49;8.50;;;6.77;;
31182;SDS011;17813;0.000;0.000;2024-01-30T12:25:32;7.07;;;6.30;;
31182;SDS011;17813;0.000;0.000;2024-01-30T12:28:00;8.13;;;6.60;;
31182;SDS011;17813;0.000;0.000;2024-01-30T12:30:28;8.07;;;6.53;;
31182;SDS011;17813;0.000;0.000;2024-01-30T12:33:15;10.87;;;7.00;;
31182;SDS011;17813;0.000;0.000;2024-01-30T12:35:46;9.97;;;6.50;;
31182;SDS011;17813;0.000;0.000;2024-01-30T12:38:16;8.63;;;6.60;;
31182;SDS011;17813;0.000;0.000;2024-01-30T12:40:44;8.33;;;6.23;;
31182;SDS011;17813;0.000;0.000;2024-01-30T12:43:13;7.40;;;6.30;;
31182;SDS011;17813;0.000;0.000;2024-01-30T12:45:41;7.93;;;6.10;;
31182;SDS011;17813;0.000;0.000;2024-01-30T12:48:13;6.73;;;6.03;;
31182;SDS011;17813;0.000;0.000;2024-01-30T12:50:43;6.80;;;6.10;;
31182;SDS011;17813;0.000;0.000;2024-01-30T12:53:11;7.67;;;6.00;;
31182;SDS011;17813;0.000;0.000;2024-01-30T12:55:44;8.20;;;6.10;;
31182;SDS011;17813;0.000;0.000;2024-01-30T12:58:13;7.27;;;5.90;;
31182;SDS011;17813;0.000;0.000;2024-01-30T13:00:43;7.10;;;5.67;;
31182;SDS011;17813;0.000;0.000;2024-01-30T13:03:11;7.43;;;5.73;;
31182;SDS011;17813;0.000;0.000;2024-01-30T13:05:38;7.80;;;5.30;;
31182;SDS011;17813;0.000;0.000;2024-01-30T13:08:07;7.90;;;5.90;;
31182;SDS011;17813;0.000;0.000;2024-01-30T13:10:53;7.03;;;5.60;;
31182;SDS011;17813;0.000;0.000;2024-01-30T13:13:20;6.43;;;5.43;;
31182;SDS011;17813;0.000;0.000;2024-01-30T13:15:48;5.90;;;5.30;;
31182;SDS011;17813;0.000;0.000;2024-01-30T13:18:17;6.57;;;5.70;;
31182;SDS011;17813;0.000;0.000;2024-01-30T13:20:51;7.60;;;4.97;;
31182;SDS011;17813;0.000;0.000;2024-01-30T13:23:34;7.53;;;5.43;;
31182;SDS011;17813;0.000;0.000;2024-01-30T13:26:02;6.07;;;5.07;;
31182;SDS011;17813;0.000;0.000;2024-01-30T13:28:32;6.50;;;5.60;;
31182;SDS011;17813;0.000;0.000;2024-01-30T13:31:01;6.47;;;5.50;;
31182;SDS011;17813;0.000;0.000;2024-01-30T13:33:28;5.90;;;5.13;;
31182;SDS011;17813;0.000;0.000;2024-01-30T13:35:58;5.40;;;4.90;;
31182;SDS011;17813;0.000;0.000;2024-01-30T13:38:26;5.80;;;4.87;;
31182;SDS011;17813;0.000;0.000;2024-01-30T13:40:56;6.30;;;5.13;;
31182;SDS011;17813;0.000;0.000;2024-01-30T13:43:23;6.27;;;4.90;;
31182;SDS011;17813;0.000;0.000;2024-01-30T13:45:50;5.93;;;4.60;;
31182;SDS011;17813;0.000;0.000;2024-01-30T13:48:24;6.30;;;5.00;;
31182;SDS011;17813;0.000;0.000;2024-01-30T13:50:53;6.33;;;4.57;;
31182;SDS011;17813;0.000;0.000;2024-01-30T13:53:22;6.97;;;4.90;;
31182;SDS011;17813;0.000;0.000;2024-01-30T13:55:51;5.10;;;4.37;;
31182;SDS011;17813;0.000;0.000;2024-01-30T13:58:30;5.67;;;4.70;;
31182;SDS011;17813;0.000;0.000;2024-01-30T14:01:09;5.87;;;4.97;;
31182;SDS011;17813;0.000;0.000;2024-01-30T14:03:39;4.90;;;4.40;;
31182;SDS011;17813;0.000;0.000;2024-01-30T14:06:18;5.83;;;5.00;;
31182;SDS011;17813;0.000;0.000;2024-01-30T14:08:45;6.37;;;5.10;;
31182;SDS011;17813;0.000;0.000;2024-01-30T14:11:12;6.60;;;5.20;;
31182;SDS011;17813;0.000;0.000;2024-01-30T14:13:45;5.83;;;5.00;;
31182;SDS011;17813;0.000;0.000;2024-01-30T14:16:20;5.70;;;5.10;;
31182;SDS011;17813;0.000;0.000;2024-01-30T14:18:59;5.97;;;4.97;;
31182;SDS011;17813;0.000;0.000;2024-01-30T14:21:26;5.57;;;4.93;;
31182;SDS011;17813;0.000;0.000;2024-01-30T14:24:06;6.93;;;5.23;;
31182;SDS011;17813;0.000;0.000;2024-01-30T14:26:33;5.70;;;5.10;;
31182;SDS011;17813;0.000;0.000;2024-01-30T14:29:00;6.03;;;5.23;;
31182;SDS011;17813;0.000;0.000;2024-01-30T14:31:29;7.10;;;5.27;;
31182;SDS011;17813;0.000;0.000;2024-01-30T14:33:59;5.87;;;5.13;;
31182;SDS011;17813;0.000;0.000;2024-01-30T14:36:27;5.90;;;5.13;;
31182;SDS011;17813;0.000;0.000;2024-01-30T14:38:54;6.13;;;5.47;;
31182;SDS011;17813;0.000;0.000;2024-01-30T14:41:22;6.77;;;5.53;;
31182;SDS011;17813;0.000;0.000;2024-01-30T14:44:04;5.83;;;5.23;;
31182;SDS011;17813;0.000;0.000;2024-01-30T14:46:32;6.37;;;5.73;;
31182;SDS011;17813;0.000;0.000;2024-01-30T14:49:00;7.27;;;5.53;;
31182;SDS011;17813;0.000;0.000;2024-01-30T14:51:32;7.50;;;5.87;;
31182;SDS011;17813;0.000;0.000;2024-01-30T14:53:59;7.53;;;6.00;;
31182;SDS011;17813;0.000;0.000;2024-01-30T14:56:53;9.63;;;5.73;;
31182;SDS011;17813;0.000;0.000;2024-01-30T14:59:27;6.90;;;6.10;;
31182;SDS011;17813;0.000;0.000;2024-01-30T15:01:56;9.47;;;6.10;;
31182;SDS011;17813;0.000;0.000;2024-01-30T15:04:32;6.67;;;5.60;;
31182;SDS011;17813;0.000;0.000;2024-01-30T15:06:59;10.97;;;6.10;;
31182;SDS011;17813;0.000;0.000;2024-01-30T15:09:42;7.80;;;5.77;;
31182;SDS011;17813;0.000;0.000;2024-01-30T15:12:12;7.80;;;5.67;;
31182;SDS011;17813;0.000;0.000;2024-01-30T15:14:40;6.33;;;5.73;;
31182;SDS011;17813;0.000;0.000;2024-01-30T15:17:32;7.13;;;5.77;;
31182;SDS011;17813;0.000;0.000;2024-01-30T15:19:59;7.63;;;5.80;;
31182;SDS011;17813;0.000;0.000;2024-01-30T15:22:37;7.33;;;5.90;;
31182;SDS011;17813;0.000;0.000;2024-01-30T15:25:09;7.87;;;5.83;;
31182;SDS011;17813;0.000;0.000;2024-01-30T15:27:46;8.23;;;6.30;;
31182;SDS011;17813;0.000;0.000;2024-01-30T15:30:14;7.43;;;6.23;;
31182;SDS011;17813;0.000;0.000;2024-01-30T15:32:41;7.83;;;6.30;;
31182;SDS011;17813;0.000;0.000;2024-01-30T15:35:09;7.33;;;5.73;;
31182;SDS011;17813;0.000;0.000;2024-01-30T15:37:40;7.33;;;6.27;;
31182;SDS011;17813;0.000;0.000;2024-01-30T15:40:08;8.27;;;6.03;;